Time;durP1;ratioP1;P1;durP2;ratioP2;P2;SDS_P1;SDS_P2;PMS_P1;PMS_P2;Temp;Humidity;BMP_temperature;BMP_pressure;BME280_temperature;BME280_humidity;BME280_pressure;Samples;Min_cycle;Max_cycle;Signal;HPM_P1;HPM_P2
2021/04/15 00:00:37;;;;;;;9.13;3.80;;;;;;;4.66;63.14;102565.56;4429517;32;20128;-74
2021/04/15 00:03:11;;;;;;;9.32;3.60;;;;;;;4.69;62.85;102574.00;4428281;32;20113;-74
2021/04/15 00:05:37;;;;;;;8.65;3.40;;;;;;;4.65;63.13;102572.28;4436901;32;20129;-74
2021/04/15 00:08:07;;;;;;;13.05;4.62;;;;;;;4.61;63.28;102565.81;4440532;32;20091;-74
2021/04/15 00:10:36;;;;;;;10.43;3.70;;;;;;;4.54;63.62;102571.97;4439638;32;20316;-74
2021/04/15 00:13:07;;;;;;;10.20;3.30;;;;;;;4.41;64.37;102570.41;4440911;32;20049;-76
2021/04/15 00:15:32;;;;;;;6.75;2.80;;;;;;;4.39;64.29;102566.34;4437442;32;20041;-74
2021/04/15 00:17:58;;;;;;;11.77;3.42;;;;;;;4.34;64.17;102569.37;4439495;32;20080;-74
2021/04/15 00:20:24;;;;;;;10.73;3.20;;;;;;;4.28;64.48;102568.81;4435234;32;20053;-74
2021/04/15 00:22:50;;;;;;;11.05;3.37;;;;;;;4.22;64.78;102561.84;4443143;32;20118;-74
2021/04/15 00:25:16;;;;;;;9.45;3.85;;;;;;;4.24;65.05;102569.84;4425579;32;20045;-74
2021/04/15 00:27:42;;;;;;;7.68;3.22;;;;;;;4.27;64.80;102572.75;4438072;32;20045;-74
2021/04/15 00:30:09;;;;;;;10.02;3.42;;;;;;;4.24;64.53;102570.69;4436689;32;20073;-74
2021/04/15 00:32:36;;;;;;;7.55;3.42;;;;;;;4.25;64.62;102577.03;4436896;32;20498;-74
2021/04/15 00:35:02;;;;;;;8.10;2.95;;;;;;;4.26;64.17;102575.91;4421523;32;20089;-74
2021/04/15 00:37:27;;;;;;;8.23;3.28;;;;;;;4.25;64.07;102568.69;4436699;32;20571;-74
2021/04/15 00:39:53;;;;;;;9.38;3.78;;;;;;;4.21;63.94;102567.78;4437585;32;20138;-74
2021/04/15 00:42:18;;;;;;;7.82;3.67;;;;;;;4.15;64.33;102556.84;4438066;32;20101;-74
2021/04/15 00:44:44;;;;;;;6.45;3.50;;;;;;;4.13;64.25;102552.81;4437102;32;20072;-74
2021/04/15 00:47:18;;;;;;;19.70;3.47;;;;;;;4.05;64.42;102545.37;4421808;32;20089;-75
2021/04/15 00:49:52;;;;;;;13.93;4.00;;;;;;;4.02;65.15;102551.69;4436170;32;20153;-75
2021/04/15 00:52:21;;;;;;;11.77;3.95;;;;;;;3.97;65.24;102555.53;4424620;32;20092;-74
2021/04/15 00:57:29;;;;;;;10.60;4.40;;;;;;;4.32;65.32;102550.22;3953316;32;15852478;-75
2021/04/15 00:59:55;;;;;;;17.50;3.78;;;;;;;4.32;65.32;102550.22;4431622;32;20148;-74
2021/04/15 01:02:23;;;;;;;15.45;4.20;;;;;;;3.87;66.21;102544.84;4421996;32;20117;-75
2021/04/15 01:04:52;;;;;;;9.82;4.53;;;;;;;3.85;66.32;102540.78;4417166;32;20026;-75
2021/04/15 01:07:18;;;;;;;8.93;4.10;;;;;;;3.83;66.11;102541.13;4419856;32;20133;-75
2021/04/15 01:09:46;;;;;;;11.98;3.80;;;;;;;3.73;66.15;102538.81;4418960;32;20038;-74
2021/04/15 01:12:33;;;;;;;10.40;3.95;;;;;;;3.86;65.61;102546.00;4418158;32;20447;-75
2021/04/15 01:17:52;;;;;;;9.35;3.50;;;;;;;4.01;65.01;102542.50;3998141;31;15015550;-73
2021/04/15 01:26:10;;;;;;;5.12;2.50;;;;;;;3.73;65.80;102535.22;3985741;32;15022126;-75
2021/04/15 01:28:55;;;;;;;5.35;2.80;;;;;;;3.73;65.80;102535.22;4436823;32;20029;-74
2021/04/15 01:31:34;;;;;;;9.30;2.53;;;;;;;3.22;66.70;102528.34;4439846;32;20119;-74
2021/04/15 01:34:10;;;;;;;7.12;2.53;;;;;;;3.12;67.33;102528.81;4440847;32;20389;-74
2021/04/15 01:36:58;;;;;;;8.93;2.65;;;;;;;3.19;66.97;102533.81;4442400;32;20767;-74
2021/04/15 01:39:32;;;;;;;14.95;2.95;;;;;;;3.16;67.03;102535.28;4432865;32;20054;-74
2021/04/15 01:42:03;;;;;;;9.35;3.17;;;;;;;3.11;67.34;102524.41;4437884;32;20056;-74
2021/04/15 01:44:38;;;;;;;11.05;3.47;;;;;;;3.08;67.44;102511.19;4437376;32;20105;-74
2021/04/15 01:47:08;;;;;;;;;;;;;;;3.05;67.74;102517.44;4440777;32;20064;-75
2021/04/15 01:49:39;;;;;;;6.28;2.92;;;;;;;3.02;68.13;102520.91;4440234;32;20021;-75
2021/04/15 01:52:08;;;;;;;8.15;3.20;;;;;;;3.02;68.30;102520.91;4435559;32;20045;-74
2021/04/15 01:54:44;;;;;;;6.87;3.10;;;;;;;2.99;68.47;102518.00;4441309;32;20429;-74
2021/04/15 01:57:20;;;;;;;14.50;3.80;;;;;;;2.98;68.67;102527.50;4438810;32;20447;-75
2021/04/15 01:59:53;;;;;;;10.90;3.72;;;;;;;2.99;68.45;102529.13;4440820;32;20417;-75
2021/04/15 02:02:24;;;;;;;9.80;3.20;;;;;;;2.98;68.46;102527.50;4422879;32;20508;-74
2021/04/15 02:05:10;;;;;;;9.27;3.20;;;;;;;2.94;68.52;102524.59;4425277;32;20069;-75
2021/04/15 02:07:40;;;;;;;;;;;;;;;2.88;68.47;102531.53;4423106;32;20101;-75
2021/04/15 02:10:10;;;;;;;7.15;2.85;;;;;;;2.86;68.58;102530.25;4420606;32;19937;-75
2021/04/15 02:12:40;;;;;;;11.10;3.47;;;;;;;3.04;68.15;102532.47;4423638;32;20401;-75
2021/04/15 02:17:47;;;;;;;12.37;4.07;;;;;;;3.27;67.53;102530.91;4005941;31;15016902;-73
2021/04/15 02:20:20;;;;;;;11.27;3.70;;;;;;;3.27;67.53;102530.91;4456819;32;20097;-73
2021/04/15 02:22:58;;;;;;;11.05;3.72;;;;;;;2.84;68.52;102527.00;4455888;32;20101;-74
2021/04/15 02:28:25;;;;;;;16.80;4.20;;;;;;;2.84;68.92;102535.31;4000727;31;15015410;-74
2021/04/15 02:31:15;;;;;;;16.48;4.30;;;;;;;2.70;69.32;102534.84;4456700;32;20103;-75
2021/04/15 02:34:02;;;;;;;9.63;4.05;;;;;;;2.70;69.25;102524.50;4456221;32;20068;-74
2021/04/15 02:36:38;;;;;;;9.27;4.37;;;;;;;2.75;69.53;102526.25;4456364;32;20068;-74
2021/04/15 02:39:09;;;;;;;8.52;4.15;;;;;;;2.68;69.61;102524.06;4456248;32;20084;-75
2021/04/15 02:41:39;;;;;;;17.25;4.25;;;;;;;2.64;69.57;102530.63;4454415;32;20081;-74
2021/04/15 02:44:11;;;;;;;17.98;5.80;;;;;;;2.66;69.49;102531.91;4456940;32;20067;-74
2021/04/15 02:46:45;;;;;;;17.15;5.75;;;;;;;2.60;69.65;102524.94;4456827;32;20448;-75
2021/04/15 02:49:14;;;;;;;17.50;4.40;;;;;;;2.62;69.76;102535.72;4456633;32;20038;-74
2021/04/15 02:51:54;;;;;;;12.05;4.37;;;;;;;2.60;69.76;102532.44;4456733;32;20475;-75
2021/04/15 02:54:25;;;;;;;9.30;3.90;;;;;;;2.56;70.03;102543.47;4458155;32;20346;-74
2021/04/15 02:56:58;;;;;;;7.85;3.60;;;;;;;2.50;70.12;102530.94;4456125;32;20089;-74
2021/04/15 02:59:35;;;;;;;6.72;3.47;;;;;;;2.52;70.19;102541.69;4456621;32;20547;-76
2021/04/15 03:02:06;;;;;;;12.43;4.00;;;;;;;2.51;70.13;102535.31;4442770;32;20100;-74
2021/04/15 03:04:35;;;;;;;11.18;3.55;;;;;;;2.44;70.36;102529.50;4437398;32;20094;-74
2021/04/15 03:07:04;;;;;;;10.95;3.50;;;;;;;2.43;70.23;102530.66;4438134;32;20060;-74
2021/04/15 03:09:34;;;;;;;10.05;3.58;;;;;;;2.42;70.22;102533.78;4437690;32;20042;-74
2021/04/15 03:12:08;;;;;;;10.05;3.30;;;;;;;2.42;70.57;102537.34;4440252;32;20983;-74
2021/04/15 03:14:43;;;;;;;7.90;3.85;;;;;;;2.42;70.17;102539.34;4438353;32;20148;-75
2021/04/15 03:17:11;;;;;;;14.80;4.25;;;;;;;2.37;70.43;102539.53;4436874;32;20029;-74
2021/04/15 03:19:39;;;;;;;12.45;4.20;;;;;;;2.53;70.09;102540.53;4440557;32;20519;-74
2021/04/15 03:24:47;;;;;;;15.75;6.28;;;;;;;2.84;69.28;102541.72;3988046;32;15024215;-74
2021/04/15 03:27:27;;;;;;;14.90;4.68;;;;;;;2.84;69.28;102541.72;4438036;32;20042;-74
2021/04/15 03:32:57;;;;;;;12.88;5.30;;;;;;;3.06;69.22;102540.47;3981181;32;15021611;-75
2021/04/15 03:40:42;;;;;;;16.60;7.12;;;;;;;2.66;70.27;102537.47;3989396;32;15024186;-75
2021/04/15 03:43:15;;;;;;;13.48;5.87;;;;;;;2.66;69.93;102537.47;4433310;32;20096;-75
2021/04/15 03:46:06;;;;;;;14.43;5.65;;;;;;;2.62;70.25;102547.66;4436550;32;20081;-75
2021/04/15 03:48:41;;;;;;;15.38;6.10;;;;;;;2.33;71.04;102544.16;4435043;32;20041;-75
2021/04/15 03:51:12;;;;;;;11.48;5.32;;;;;;;2.35;71.38;102547.38;4433656;32;20025;-75
2021/04/15 03:53:47;;;;;;;13.13;4.80;;;;;;;2.30;71.32;102544.84;4435748;32;20076;-75
2021/04/15 03:56:20;;;;;;;13.32;4.37;;;;;;;2.30;71.03;102548.41;4436363;32;20437;-75
2021/04/15 03:58:54;;;;;;;10.57;4.65;;;;;;;2.31;71.03;102552.84;4435005;32;20060;-75
2021/04/15 04:01:26;;;;;;;10.00;4.62;;;;;;;2.32;70.78;102548.06;4435202;32;21253;-74
2021/04/15 04:04:31;;;;;;;7.97;4.28;;;;;;;2.29;70.61;102555.13;4430113;32;20474;-75
2021/04/15 04:07:02;;;;;;;12.37;5.05;;;;;;;2.27;70.71;102551.84;4434447;32;20385;-75
2021/04/15 04:09:32;;;;;;;11.93;4.55;;;;;;;2.19;71.06;102555.53;4430285;32;20425;-75
2021/04/15 04:12:02;;;;;;;15.90;5.12;;;;;;;2.18;71.23;102553.91;4433023;32;20471;-75
2021/04/15 04:14:35;;;;;;;9.60;4.78;;;;;;;2.19;71.16;102555.53;4434179;32;20061;-75
2021/04/15 04:17:06;;;;;;;16.83;5.70;;;;;;;2.14;71.62;102554.94;4432177;32;20052;-75
2021/04/15 04:28:00;;;;;;;9.82;4.87;;;;;;;2.64;70.87;102550.09;3983750;32;15024510;-75
2021/04/15 04:30:35;;;;;;;13.00;4.47;;;;;;;2.64;70.87;102550.09;4434828;32;20037;-75
2021/04/15 04:33:05;;;;;;;15.32;4.80;;;;;;;2.20;71.70;102553.59;4432504;32;20021;-75
2021/04/15 04:35:36;;;;;;;16.83;4.72;;;;;;;2.14;71.90;102552.16;4432623;32;20034;-75
2021/04/15 04:38:06;;;;;;;16.75;5.10;;;;;;;2.12;71.77;102546.13;4433251;32;20037;-75
2021/04/15 04:40:36;;;;;;;12.00;4.90;;;;;;;2.10;71.56;102554.78;4433155;32;20059;-75
2021/04/15 04:45:38;;;;;;;17.45;6.00;;;;;;;2.47;70.84;102548.28;3983932;32;15022118;-74
2021/04/15 04:50:50;;;;;;;17.50;6.95;;;;;;;2.50;70.75;102546.78;3988074;32;15022844;-74
2021/04/15 04:53:35;;;;;;;11.10;4.72;;;;;;;2.50;70.75;102546.78;4440851;32;20088;-74
2021/04/15 04:58:39;;;;;;;12.13;5.50;;;;;;;2.42;70.60;102554.03;4002072;31;15014727;-75
2021/04/15 05:01:06;;;;;;;13.62;5.50;;;;;;;2.42;70.60;102554.03;4447657;32;20059;-75
2021/04/15 05:03:33;;;;;;;18.75;8.60;;;;;;;1.98;71.23;102549.16;4436462;32;20085;-75
2021/04/15 05:06:00;;;;;;;18.62;10.15;;;;;;;1.91;71.91;102554.44;4446530;32;20096;-75
2021/04/15 05:08:31;;;;;;;17.77;9.77;;;;;;;1.98;72.13;102560.25;4441959;32;20041;-75
2021/04/15 05:10:57;;;;;;;22.00;9.70;;;;;;;1.96;72.22;102557.00;4432605;32;20076;-75
2021/04/15 05:13:29;;;;;;;18.95;7.95;;;;;;;1.95;72.35;102560.91;4440323;32;20040;-75
2021/04/15 05:16:00;;;;;;;13.13;5.20;;;;;;;2.12;71.91;102566.38;4446853;32;20135;-75
2021/04/15 05:18:26;;;;;;;15.45;3.97;;;;;;;2.11;71.69;102564.72;4442791;32;20075;-75
2021/04/15 05:21:01;;;;;;;13.15;4.47;;;;;;;2.01;71.92;102562.34;4437885;32;20481;-75
2021/04/15 05:23:38;;;;;;;21.15;4.35;;;;;;;2.03;71.89;102566.41;4438314;32;20076;-75
2021/04/15 05:28:47;;;;;;;11.00;3.72;;;;;;;2.52;70.80;102575.87;3970419;32;15021979;-74
2021/04/15 05:31:18;;;;;;;12.35;3.65;;;;;;;2.52;70.80;102575.87;4425523;32;20071;-74
2021/04/15 05:33:44;;;;;;;12.60;4.57;;;;;;;2.08;71.14;102573.72;4420378;32;20038;-74
2021/04/15 05:38:58;;;;;;;11.70;5.68;;;;;;;2.74;70.02;102588.59;3984137;32;15023570;-74
2021/04/15 05:44:15;;;;;;;12.00;6.55;;;;;;;2.43;70.73;102577.09;4002331;31;15016172;-76
2021/04/15 05:46:44;;;;;;;17.12;6.10;;;;;;;2.50;70.26;102578.16;4465985;32;20037;-73
2021/04/15 05:49:15;;;;;;;18.37;6.75;;;;;;;2.72;70.06;102579.75;4464050;32;20502;-73
2021/04/15 05:52:21;;;;;;;15.10;6.12;;;;;;;2.57;70.49;102578.44;4463456;32;20033;-74
2021/04/15 05:54:48;;;;;;;15.98;6.68;;;;;;;2.68;70.59;102581.59;4466843;32;20429;-73
2021/04/15 05:57:20;;;;;;;20.73;8.30;;;;;;;2.84;69.93;102582.59;4464183;32;20101;-75
2021/04/15 06:00:12;;;;;;;25.65;7.18;;;;;;;2.93;69.65;102583.31;4466636;32;20055;-73
2021/04/15 06:08:11;;;;;;;20.12;7.40;;;;;;;3.52;67.42;102590.19;3984992;32;15022953;-75
2021/04/15 06:10:39;;;;;;;13.43;7.03;;;;;;;3.42;67.66;102588.69;4438175;32;20033;-75
2021/04/15 06:13:28;;;;;;;15.82;6.32;;;;;;;3.46;67.70;102586.00;4441240;32;20427;-75
2021/04/15 06:16:02;;;;;;;22.37;8.82;;;;;;;3.61;67.02;102588.09;4433455;32;20417;-75
2021/04/15 06:18:42;;;;;;;19.73;6.90;;;;;;;3.67;66.74;102592.28;4440948;32;20044;-75
2021/04/15 06:26:47;;;;;;;27.42;8.98;;;;;;;4.55;64.59;102604.28;3985515;32;15041910;-75
2021/04/15 06:29:27;;;;;;;22.48;7.80;;;;;;;4.55;64.59;102604.28;4439627;32;20127;-75
2021/04/15 06:31:57;;;;;;;18.98;7.60;;;;;;;4.03;66.03;102598.66;4434822;32;20602;-75
2021/04/15 06:34:26;;;;;;;23.95;8.50;;;;;;;4.12;66.05;102606.91;4434216;32;20097;-75
2021/04/15 06:37:02;;;;;;;24.27;7.93;;;;;;;4.25;65.87;102599.34;4430240;32;20073;-75
2021/04/15 06:50:58;;;;;;;18.85;7.05;;;;;;;5.37;63.05;102614.59;3983355;32;15025692;-75
2021/04/15 07:04:20;;;;;;;18.30;8.05;;;;;;;5.84;61.25;102631.44;4005137;31;15018991;-73
2021/04/15 07:06:54;;;;;;;28.20;8.27;;;;;;;5.84;61.25;102631.44;4462169;32;20096;-75
2021/04/15 07:10:00;;;;;;;19.05;7.72;;;;;;;5.47;62.08;102630.84;4458316;32;20295;-75
2021/04/15 07:23:53;;;;;;;14.30;7.72;;;;;;;6.69;59.46;102620.28;3986542;32;15028852;-75
2021/04/15 07:34:46;;;;;;;23.02;7.35;;;;;;;7.18;58.01;102629.69;3998764;31;15018078;-74
2021/04/15 07:40:22;;;;;;;19.10;7.80;;;;;;;7.69;56.99;102625.44;3959276;32;15021418;-75
2021/04/15 07:45:31;;;;;;;25.30;8.30;;;;;;;7.94;56.58;102621.91;3980385;32;15027292;-73
2021/04/15 07:53:18;;;;;;;;;;;;;;;;;;;;;
2021/04/15 08:02:38;;;;;;;18.67;8.10;;;;;;;8.93;54.79;102627.00;3962318;32;15023399;-75
2021/04/15 08:05:25;;;;;;;25.35;7.62;;;;;;;8.93;54.79;102627.00;4418509;32;20117;-75
2021/04/15 08:08:30;;;;;;;23.30;7.72;;;;;;;8.61;55.17;102620.16;4419595;32;20094;-75
2021/04/15 08:24:37;;;;;;;20.02;7.82;;;;;;;10.07;51.81;102639.09;3984512;32;15028815;-74
2021/04/15 08:35:36;;;;;;;11.68;5.12;;;;;;;10.84;50.49;102640.34;3994446;31;15018384;-73
2021/04/15 08:58:03;;;;;;;16.12;4.37;;;;;;;14.23;40.53;102630.94;3985175;32;15025475;-74
2021/04/15 09:15:05;;;;;;;11.75;3.10;;;;;;;15.43;36.71;102644.56;3986352;32;15022327;-74
2021/04/15 09:17:38;;;;;;;11.20;2.83;;;;;;;15.43;36.71;102644.56;4432810;32;20084;-74
2021/04/15 09:28:19;;;;;;;11.48;2.40;;;;;;;16.71;32.77;102634.34;3969144;32;15022097;-72
2021/04/15 09:31:15;;;;;;;10.27;2.40;;;;;;;16.71;32.77;102634.34;4424642;32;20032;-73
2021/04/15 09:34:20;;;;;;;7.78;2.42;;;;;;;16.15;33.23;102641.03;4427409;32;20528;-76
2021/04/15 09:40:06;;;;;;;7.03;2.55;;;;;;;16.41;33.06;102640.16;3980447;32;15026639;-73
2021/04/15 09:48:06;;;;;;;7.82;3.10;;;;;;;16.57;32.88;102642.34;3982276;32;15021968;-72
2021/04/15 09:50:57;;;;;;;9.10;3.17;;;;;;;16.36;32.74;102635.00;4438627;32;20062;-73
2021/04/15 09:53:52;;;;;;;8.32;2.97;;;;;;;16.55;33.13;102625.75;4440350;32;20156;-72
2021/04/15 10:01:55;;;;;;;8.45;2.60;;;;;;;16.86;31.08;102624.31;3938701;32;15722572;-76
2021/04/15 10:07:05;;;;;;;12.23;2.87;;;;;;;16.83;32.08;102622.34;3978730;32;15025631;-73
2021/04/15 10:12:40;;;;;;;11.60;2.03;;;;;;;16.17;33.25;102615.81;3982256;32;15029040;-72
2021/04/15 10:15:37;;;;;;;6.35;1.92;;;;;;;16.58;32.32;102619.19;4435714;32;20068;-73
2021/04/15 10:18:08;;;;;;;10.40;4.57;;;;;;;16.95;30.72;102621.69;4434460;32;20386;-73
2021/04/15 10:27:09;;;;;;;7.78;1.58;;;;;;;18.14;28.09;102617.34;3981409;32;15021782;-75
2021/04/15 10:30:07;;;;;;;4.07;1.45;;;;;;;18.14;28.09;102617.34;4440571;32;20041;-74
2021/04/15 10:36:24;;;;;;;6.35;1.62;;;;;;;19.03;27.10;102620.22;3986889;31;15021881;-75
2021/04/15 10:42:13;;;;;;;3.72;1.52;;;;;;;18.85;27.33;102617.06;3981060;32;15021319;-76
2021/04/15 10:47:55;;;;;;;6.85;1.77;;;;;;;20.07;26.01;102614.50;3981970;32;15031435;-74
2021/04/15 10:50:48;;;;;;;4.18;1.90;;;;;;;20.07;26.01;102614.50;4434433;32;20373;-75
2021/04/15 10:56:09;;;;;;;5.83;2.20;;;;;;;20.50;25.87;102591.78;3996825;31;15015538;-74
2021/04/15 10:58:41;;;;;;;6.25;2.05;;;;;;;20.50;25.87;102591.78;4452886;32;20165;-74
2021/04/15 11:01:31;;;;;;;9.00;2.47;;;;;;;20.33;26.11;102593.19;4455319;32;20095;-74
2021/04/15 11:04:00;;;;;;;3.60;1.77;;;;;;;20.58;25.42;102598.81;4462043;32;20064;-74
2021/04/15 11:06:46;;;;;;;6.15;1.62;;;;;;;21.13;24.43;102595.94;4460852;32;21074;-74
2021/04/15 11:09:31;;;;;;;5.78;1.70;;;;;;;21.37;23.88;102599.91;4465233;32;20071;-74
2021/04/15 11:28:30;;;;;;;16.55;2.22;;;;;;;22.40;22.32;102582.13;3981799;32;15023305;-76
2021/04/15 11:38:50;;;;;;;9.30;2.20;;;;;;;22.01;22.62;102568.66;3981690;32;15045677;-75
2021/04/15 11:44:22;;;;;;;11.18;2.03;;;;;;;22.26;22.34;102565.53;3983442;32;15026538;-76
2021/04/15 12:02:39;;;;;;;4.28;1.25;;;;;;;23.84;20.45;102553.09;3977326;32;15025274;-74
2021/04/15 12:07:51;;;;;;;6.30;1.60;;;;;;;24.18;19.86;102551.81;3982529;32;15022079;-74
2021/04/15 12:10:21;;;;;;;3.37;1.42;;;;;;;24.18;19.86;102551.81;4433952;32;20033;-74
2021/04/15 12:12:49;;;;;;;5.80;1.90;;;;;;;22.93;20.72;102540.34;4434043;32;20038;-74
2021/04/15 12:15:22;;;;;;;7.05;1.23;;;;;;;21.99;21.82;102531.87;4434860;32;20394;-74
2021/04/15 12:20:35;;;;;;;2.30;1.05;;;;;;;21.03;22.82;102534.19;3955796;32;15724665;-74
2021/04/15 12:25:54;;;;;;;6.12;2.20;;;;;;;20.17;24.23;102530.44;4007916;31;15015129;-74
2021/04/15 12:28:32;;;;;;;6.32;1.50;;;;;;;20.17;24.23;102530.44;4467129;32;20106;-74
2021/04/15 12:31:09;;;;;;;5.25;1.20;;;;;;;19.61;24.42;102519.66;4469681;32;20103;-74
2021/04/15 12:33:45;;;;;;;3.03;1.25;;;;;;;20.57;23.81;102522.84;4469640;32;20077;-74
2021/04/15 12:38:56;;;;;;;3.97;1.17;;;;;;;23.39;20.64;102533.22;3984713;32;15029261;-74
2021/04/15 12:41:23;;;;;;;3.30;1.20;;;;;;;23.39;20.64;102533.22;4440284;32;20103;-75
2021/04/15 12:44:07;;;;;;;5.82;1.42;;;;;;;23.39;20.66;102519.66;4443037;32;20735;-75
2021/04/15 12:46:35;;;;;;;5.45;1.37;;;;;;;24.02;20.10;102527.12;4438537;32;20194;-75
2021/04/15 12:51:43;;;;;;;4.10;1.45;;;;;;;24.60;19.55;102527.31;3982639;32;15022176;-74
2021/04/15 12:57:10;;;;;;;15.57;2.10;;;;;;;25.04;19.23;102527.41;3983360;32;15021675;-76
2021/04/15 12:59:41;;;;;;;4.62;1.48;;;;;;;25.04;19.23;102527.41;4440687;32;20449;-77
2021/04/15 13:02:14;;;;;;;3.83;1.50;;;;;;;24.02;19.42;102521.37;4422307;32;20033;-75
2021/04/15 13:04:44;;;;;;;3.90;1.25;;;;;;;23.99;19.21;102521.59;4419429;32;20429;-75
2021/04/15 13:09:49;;;;;;;11.60;2.12;;;;;;;25.33;18.50;102505.13;3979874;32;15026540;-75
2021/04/15 13:12:27;;;;;;;2.03;1.00;;;;;;;25.33;18.50;102505.13;4433249;32;20103;-75
2021/04/15 13:14:55;;;;;;;10.10;1.70;;;;;;;25.49;18.05;102511.66;4436035;32;20049;-75
2021/04/15 13:20:37;;;;;;;6.45;1.77;;;;;;;27.45;16.72;102504.31;3984113;32;15022369;-76
2021/04/15 13:31:47;;;;;;;4.80;1.35;;;;;;;23.89;19.85;102506.44;4007519;31;15018370;-75
2021/04/15 13:36:52;;;;;;;10.68;2.45;;;;;;;25.28;18.37;102499.25;3983219;32;15030835;-74
2021/04/15 13:39:36;;;;;;;21.98;2.40;;;;;;;25.28;18.37;102499.25;4432155;32;20045;-75
2021/04/15 13:42:08;;;;;;;2.85;1.17;;;;;;;25.26;18.12;102485.34;4434596;32;20046;-76
2021/04/15 13:44:54;;;;;;;6.40;1.67;;;;;;;26.69;16.51;102486.53;4431702;32;20087;-76
2021/04/15 13:47:40;;;;;;;4.62;1.45;;;;;;;28.34;15.00;102492.72;4435059;32;20094;-76
2021/04/15 13:50:07;;;;;;;3.17;1.27;;;;;;;28.93;14.30;102490.50;4434650;32;20098;-76
2021/04/15 13:52:36;;;;;;;94.57;5.30;;;;;;;27.94;14.58;102490.19;4432052;32;20445;-76
2021/04/15 13:55:41;;;;;;;3.25;1.30;;;;;;;27.12;15.37;102484.59;4433972;32;20026;-76
2021/04/15 13:58:10;;;;;;;3.67;1.75;;;;;;;27.85;15.13;102480.91;4432674;32;20033;-76
2021/04/15 14:00:40;;;;;;;4.28;1.37;;;;;;;28.93;14.60;102476.00;4430772;32;20069;-76
2021/04/15 14:03:46;;;;;;;5.07;1.70;;;;;;;30.43;12.91;102488.13;4420925;32;20038;-76
2021/04/15 14:06:22;;;;;;;3.45;1.17;;;;;;;32.20;11.89;102485.22;4417486;32;20092;-76
2021/04/15 14:11:42;;;;;;;14.05;1.98;;;;;;;33.32;11.02;102477.19;3984570;32;15024496;-75
2021/04/15 14:14:21;;;;;;;7.37;1.50;;;;;;;33.32;11.02;102477.19;4437839;32;20037;-75
2021/04/15 14:16:51;;;;;;;4.72;1.58;;;;;;;31.14;12.24;102468.62;4434356;32;20049;-75
2021/04/15 14:19:27;;;;;;;20.20;2.40;;;;;;;29.14;13.70;102459.16;4437095;32;20050;-78
2021/04/15 14:21:53;;;;;;;7.22;2.00;;;;;;;27.25;15.43;102458.97;4434336;32;20037;-75
2021/04/15 14:24:31;;;;;;;9.55;2.12;;;;;;;25.84;16.58;102458.44;4436028;32;20038;-75
2021/04/15 14:27:00;;;;;;;6.53;1.70;;;;;;;24.41;17.85;102450.25;4438018;32;20076;-75
2021/04/15 14:37:32;;;;;;;6.67;2.50;;;;;;;21.46;21.92;102433.81;4005565;31;15015812;-75
2021/04/15 14:42:42;;;;;;;3.80;1.80;;;;;;;25.24;18.33;102444.69;3983731;32;15023748;-77
2021/04/15 14:47:58;;;;;;;4.78;1.90;;;;;;;24.80;18.54;102443.16;3987787;32;15023662;-75
2021/04/15 14:50:35;;;;;;;7.15;2.20;;;;;;;24.80;18.54;102443.16;4442775;32;20108;-75
2021/04/15 14:53:21;;;;;;;6.65;1.70;;;;;;;23.42;19.61;102438.22;4437725;32;20025;-75
2021/04/15 14:56:05;;;;;;;4.75;1.95;;;;;;;22.50;20.46;102426.72;4442715;32;20037;-74
2021/04/15 14:58:31;;;;;;;7.18;1.75;;;;;;;21.80;21.53;102438.50;4435638;32;20041;-75
2021/04/15 15:01:00;;;;;;;7.72;1.87;;;;;;;21.40;22.13;102432.84;4432804;32;20037;-77
2021/04/15 15:03:32;;;;;;;10.57;2.00;;;;;;;21.04;22.14;102426.16;4413921;32;20137;-74
2021/04/15 15:05:58;;;;;;;9.02;1.92;;;;;;;20.58;22.72;102433.69;4418317;32;20038;-75
2021/04/15 15:08:34;;;;;;;13.80;2.25;;;;;;;20.53;22.90;102427.78;4423755;32;20086;-75
2021/04/15 15:11:00;;;;;;;5.68;1.83;;;;;;;20.63;23.36;102415.12;4423994;32;20061;-77
2021/04/15 15:13:30;;;;;;;5.37;2.15;;;;;;;20.40;24.23;102421.38;4426340;32;20030;-75
2021/04/15 15:15:57;;;;;;;5.97;2.45;;;;;;;20.14;24.48;102420.69;4423946;32;20050;-77
2021/04/15 15:18:26;;;;;;;9.60;2.30;;;;;;;19.83;24.61;102421.81;4426721;32;20083;-77
2021/04/15 15:20:54;;;;;;;9.02;2.40;;;;;;;19.42;25.07;102420.00;4425217;32;20497;-77
2021/04/15 15:26:17;;;;;;;6.00;1.87;;;;;;;19.03;26.38;102414.75;4008694;31;15019275;-74
2021/04/15 15:28:53;;;;;;;10.65;2.92;;;;;;;19.03;26.38;102414.75;4459977;32;20041;-77
2021/04/15 15:31:19;;;;;;;6.78;1.95;;;;;;;18.66;27.02;102412.66;4467714;32;20058;-74
2021/04/15 15:33:46;;;;;;;6.07;2.65;;;;;;;18.61;27.25;102413.22;4467915;32;20090;-77
2021/04/15 15:36:16;;;;;;;10.30;3.17;;;;;;;18.42;27.73;102417.06;4467342;32;20331;-77
2021/04/15 15:38:52;;;;;;;7.72;2.60;;;;;;;18.18;28.28;102422.22;4463618;32;20069;-74
2021/04/15 15:54:48;;;;;;;13.07;5.12;;;;;;;18.83;27.61;102417.00;3982143;32;15021935;-76
2021/04/15 16:02:34;;;;;;;3.22;1.98;;;;;;;19.02;26.74;102411.06;3970082;32;15026473;-76
2021/04/15 16:10:17;;;;;;;9.20;2.80;;;;;;;19.46;25.85;102410.00;4446546;31;20418;-76
2021/04/15 16:12:54;;;;;;;4.10;2.08;;;;;;;19.46;25.85;102410.00;3971360;32;20049;-74
2021/04/15 16:15:44;;;;;;;8.30;2.00;;;;;;;19.46;25.54;102400.66;4433577;32;20073;-76
2021/04/15 16:23:33;;;;;;;9.03;1.97;;;;;;;22.31;22.48;102410.81;4003387;31;15017600;-74
2021/04/15 16:25:59;;;;;;;13.70;2.35;;;;;;;22.31;22.48;102410.81;4459448;32;20127;-74
2021/04/15 16:28:26;;;;;;;9.63;2.72;;;;;;;22.53;21.74;102404.88;4456884;32;20040;-74
2021/04/15 16:30:53;;;;;;;4.37;1.87;;;;;;;23.76;20.60;102405.25;4450205;32;20466;-75
2021/04/15 16:33:20;;;;;;;7.75;2.10;;;;;;;25.13;19.07;102403.41;4455584;32;20077;-75
2021/04/15 16:35:50;;;;;;;3.53;1.98;;;;;;;27.07;17.54;102408.09;4455615;32;20480;-75
2021/04/15 16:38:26;;;;;;;6.85;1.73;;;;;;;28.51;16.31;102411.69;4457087;32;20099;-75
2021/04/15 16:40:51;;;;;;;5.22;2.03;;;;;;;27.91;16.63;102406.47;4451331;32;20351;-75
2021/04/15 16:43:17;;;;;;;8.82;2.30;;;;;;;25.66;18.23;102406.00;4458329;32;20060;-77
2021/04/15 16:45:43;;;;;;;3.60;1.85;;;;;;;24.42;19.70;102397.19;4460692;32;20033;-77
2021/04/15 16:48:10;;;;;;;5.10;1.95;;;;;;;25.21;19.05;102399.59;4462395;32;20037;-75
2021/04/15 16:50:36;;;;;;;3.67;1.90;;;;;;;26.56;17.76;102405.25;4470941;32;20048;-77
2021/04/15 16:53:03;;;;;;;6.32;2.30;;;;;;;27.70;16.79;102387.72;4463902;32;20101;-75
2021/04/15 16:55:30;;;;;;;4.22;1.52;;;;;;;28.15;16.26;102389.47;4465440;32;20040;-75
2021/04/15 16:57:57;;;;;;;3.15;1.73;;;;;;;28.59;15.79;102401.19;4465775;32;20041;-75
2021/04/15 17:00:30;;;;;;;6.70;2.05;;;;;;;26.71;17.11;102391.50;4466133;32;20143;-74
2021/04/15 17:02:57;;;;;;;9.50;2.25;;;;;;;25.23;18.62;102387.56;4446452;32;20068;-74
2021/04/15 17:05:25;;;;;;;6.97;2.12;;;;;;;24.31;19.61;102391.19;4448539;32;20079;-74
2021/04/15 17:07:53;;;;;;;5.12;1.75;;;;;;;22.84;21.14;102382.44;4446465;32;20052;-74
2021/04/15 17:10:20;;;;;;;4.28;1.42;;;;;;;21.88;22.39;102391.06;4429068;32;20449;-75
2021/04/15 17:12:46;;;;;;;7.43;1.98;;;;;;;21.03;23.37;102376.72;4445674;32;20042;-74
2021/04/15 17:15:13;;;;;;;11.88;2.20;;;;;;;20.18;24.28;102369.06;4447988;32;20033;-74
2021/04/15 17:17:38;;;;;;;5.78;1.73;;;;;;;19.64;24.98;102375.16;4444608;32;20457;-74
2021/04/15 17:20:07;;;;;;;9.00;2.12;;;;;;;19.25;25.41;102364.25;4447972;32;20045;-76
2021/04/15 17:22:34;;;;;;;6.15;1.52;;;;;;;18.98;25.72;102367.59;4433698;32;20362;-74
2021/04/15 17:24:59;;;;;;;5.07;1.65;;;;;;;18.43;26.08;102367.34;4451104;32;20065;-75
2021/04/15 17:27:28;;;;;;;3.10;1.67;;;;;;;18.28;26.14;102372.66;4444272;32;20351;-74
2021/04/15 17:29:55;;;;;;;4.65;1.90;;;;;;;17.90;26.86;102366.03;4449853;32;20113;-74
2021/04/15 17:32:21;;;;;;;2.92;1.30;;;;;;;17.28;28.27;102358.75;4449730;32;20038;-74
2021/04/15 17:34:47;;;;;;;7.32;1.40;;;;;;;16.90;29.20;102354.03;4434865;32;20370;-74
2021/04/15 17:37:12;;;;;;;4.93;1.42;;;;;;;16.92;29.17;102357.25;4437854;32;20123;-74
2021/04/15 17:39:38;;;;;;;3.50;1.23;;;;;;;16.82;29.29;102353.44;4436304;32;20166;-74